createdAt,value
2019-03-12T00:03:10.604Z,2.60
2019-03-12T00:08:16.165Z,2.53
2019-03-12T00:13:21.629Z,2.40
2019-03-12T00:18:28.624Z,2.87
2019-03-12T00:23:34.341Z,2.87
2019-03-12T00:28:40.210Z,1.67
2019-03-12T00:33:46.093Z,2.90
2019-03-12T00:38:51.706Z,2.73
2019-03-12T00:43:57.730Z,4.00
2019-03-12T00:49:03.298Z,2.30
2019-03-12T00:54:08.894Z,2.73
2019-03-12T00:59:14.639Z,3.40
2019-03-12T01:04:20.240Z,4.60
2019-03-12T01:09:25.853Z,2.40
2019-03-12T01:14:31.328Z,2.93
2019-03-12T01:19:36.828Z,2.23
2019-03-12T01:24:42.419Z,3.23
2019-03-12T01:29:47.999Z,3.57
2019-03-12T01:34:53.661Z,2.60
2019-03-12T01:39:59.325Z,3.93
2019-03-12T01:45:07.270Z,2.33
2019-03-12T01:50:12.882Z,2.57
2019-03-12T01:55:18.384Z,3.93
2019-03-12T02:00:23.910Z,2.93
2019-03-12T02:05:29.470Z,3.70
2019-03-12T02:10:34.877Z,3.30
2019-03-12T02:15:40.208Z,4.07
2019-03-12T02:20:45.851Z,3.70
2019-03-12T02:25:51.314Z,2.97
2019-03-12T02:30:56.972Z,4.70
2019-03-12T02:36:02.644Z,3.17
2019-03-12T02:41:08.332Z,4.20
2019-03-12T02:46:14.021Z,2.73
2019-03-12T02:51:19.685Z,3.90
2019-03-12T02:56:25.059Z,3.93
2019-03-12T03:01:30.774Z,3.37
2019-03-12T03:07:04.309Z,3.53
2019-03-12T03:12:09.861Z,2.47
2019-03-12T03:17:16.425Z,2.87
2019-03-12T03:22:22.046Z,2.03
2019-03-12T03:27:29.307Z,3.00
2019-03-12T03:32:34.527Z,2.87
2019-03-12T03:37:40.071Z,2.87
2019-03-12T03:42:45.614Z,2.17
2019-03-12T03:47:51.270Z,2.40
2019-03-12T03:52:56.675Z,2.63
2019-03-12T03:58:02.318Z,2.73
2019-03-12T04:03:08.017Z,3.50
2019-03-12T04:08:13.955Z,2.20
2019-03-12T04:13:19.718Z,3.40
2019-03-12T04:18:25.403Z,2.90
2019-03-12T04:23:30.974Z,2.70
2019-03-12T04:28:36.754Z,3.50
2019-03-12T04:34:14.744Z,2.33
2019-03-12T04:39:20.141Z,2.63
2019-03-12T04:44:25.576Z,2.97
2019-03-12T04:49:31.041Z,2.30
2019-03-12T04:54:36.627Z,2.10
2019-03-12T04:59:42.182Z,1.90
2019-03-12T05:04:47.843Z,1.60
2019-03-12T05:09:53.398Z,1.73
2019-03-12T05:14:59.059Z,2.17
2019-03-12T05:20:04.935Z,1.97
2019-03-12T05:25:11.227Z,1.70
2019-03-12T05:30:17.218Z,1.60
2019-03-12T05:35:22.754Z,2.33
2019-03-12T05:40:28.442Z,2.27
2019-03-12T05:45:34.008Z,1.40
2019-03-12T05:50:39.371Z,2.03
2019-03-12T05:55:44.818Z,2.80
2019-03-12T06:00:50.394Z,2.33
2019-03-12T06:05:55.950Z,3.23
2019-03-12T06:11:01.299Z,3.27
2019-03-12T06:16:06.878Z,2.73
2019-03-12T06:21:12.358Z,2.17
2019-03-12T06:26:17.885Z,2.47
2019-03-12T06:31:42.333Z,1.87
2019-03-12T06:36:51.879Z,2.27
2019-03-12T06:42:07.756Z,3.03
2019-03-12T06:47:23.360Z,2.43
2019-03-12T06:52:48.693Z,2.40
2019-03-12T06:58:35.502Z,1.20
2019-03-12T07:04:03.106Z,2.00
2019-03-12T07:09:30.654Z,1.53
2019-03-12T07:14:44.870Z,2.70
2019-03-12T07:20:13.443Z,2.52
2019-03-12T07:25:34.426Z,1.50
2019-03-12T07:30:57.407Z,2.70
2019-03-12T07:36:15.219Z,2.43
2019-03-12T07:41:32.728Z,2.43
2019-03-12T07:47:06.150Z,2.97
2019-03-12T07:52:37.573Z,2.23
2019-03-12T07:58:02.025Z,2.33
2019-03-12T08:03:25.462Z,2.40
2019-03-12T08:08:44.421Z,2.60
2019-03-12T08:14:09.175Z,2.20
2019-03-12T08:19:39.762Z,1.40
2019-03-12T08:24:51.471Z,1.50
2019-03-12T08:30:15.997Z,2.10
2019-03-12T08:35:55.405Z,1.80
2019-03-12T08:41:12.065Z,1.80
2019-03-12T08:46:54.873Z,0.93
2019-03-12T08:52:18.417Z,1.43
2019-03-12T08:57:52.222Z,1.80
2019-03-12T09:03:12.535Z,2.30
2019-03-12T09:08:52.407Z,1.63
2019-03-12T09:14:28.940Z,1.40
2019-03-12T09:19:52.210Z,1.50
2019-03-12T09:25:14.538Z,1.60
2019-03-12T09:30:39.679Z,1.00
2019-03-12T09:36:04.192Z,2.03
2019-03-12T09:41:28.639Z,2.50
2019-03-12T09:46:46.485Z,1.23
2019-03-12T09:51:57.292Z,1.33
2019-03-12T09:57:09.591Z,2.00
2019-03-12T10:02:26.599Z,2.00
2019-03-12T10:07:49.214Z,2.30
2019-03-12T10:13:19.748Z,2.17
2019-03-12T10:18:50.976Z,3.40
2019-03-12T10:24:06.878Z,2.67
2019-03-12T10:29:31.418Z,1.63
2019-03-12T10:35:05.281Z,1.80
2019-03-12T10:40:29.446Z,1.73
2019-03-12T10:45:52.947Z,1.80
2019-03-12T10:50:58.706Z,1.40
2019-03-12T10:56:04.617Z,1.67
2019-03-12T11:01:10.431Z,3.10
2019-03-12T11:06:15.888Z,2.83
2019-03-12T11:11:21.558Z,2.23
2019-03-12T11:16:27.322Z,1.80
2019-03-12T11:21:33.032Z,1.73
2019-03-12T11:26:38.693Z,2.03
2019-03-12T11:31:44.544Z,2.17
2019-03-12T11:36:50.288Z,1.60
2019-03-12T11:41:56.075Z,2.10
2019-03-12T11:47:02.770Z,2.10
2019-03-12T11:52:08.423Z,3.27
2019-03-12T11:57:14.053Z,1.47
2019-03-12T12:02:19.780Z,1.73
2019-03-12T12:07:25.126Z,1.57
2019-03-12T12:12:31.656Z,1.13
2019-03-12T12:17:37.270Z,1.23
2019-03-12T12:22:42.995Z,1.53
2019-03-12T12:27:48.594Z,2.30
2019-03-12T12:32:54.173Z,1.33
2019-03-12T12:37:59.924Z,3.43
2019-03-12T12:43:05.521Z,2.73
2019-03-12T12:48:11.180Z,1.97
2019-03-12T12:53:16.679Z,1.47
2019-03-12T12:58:22.364Z,2.00
2019-03-12T13:03:28.089Z,1.43
2019-03-12T13:08:33.500Z,1.40
2019-03-12T13:13:39.128Z,2.00
2019-03-12T13:18:44.712Z,2.30
2019-03-12T13:23:50.098Z,0.50
2019-03-12T13:28:55.665Z,0.30
2019-03-12T13:34:01.219Z,0.43
2019-03-12T13:39:08.262Z,0.30
2019-03-12T13:44:13.810Z,0.50
2019-03-12T13:49:19.517Z,0.30
2019-03-12T13:54:25.194Z,0.20
2019-03-12T13:59:30.857Z,0.40
2019-03-12T14:04:36.570Z,0.30
2019-03-12T14:09:42.115Z,0.30
2019-03-12T14:14:47.791Z,0.70
2019-03-12T14:19:53.393Z,0.40
2019-03-12T14:24:58.973Z,0.53
2019-03-12T14:30:04.431Z,0.37
2019-03-12T14:35:10.033Z,0.63
2019-03-12T14:40:15.695Z,0.40
2019-03-12T14:45:26.432Z,0.30
2019-03-12T14:50:32.007Z,0.60
2019-03-12T14:55:37.539Z,0.27
2019-03-12T15:00:42.991Z,0.50
2019-03-12T15:05:48.584Z,0.40
2019-03-12T15:10:54.053Z,0.33
2019-03-12T15:15:59.484Z,0.30
2019-03-12T15:21:05.389Z,0.20
2019-03-12T15:26:11.081Z,0.20
2019-03-12T15:31:16.744Z,0.50
2019-03-12T15:36:22.379Z,0.40
2019-03-12T15:41:27.959Z,0.40
2019-03-12T15:46:33.521Z,0.40
2019-03-12T15:51:39.083Z,0.60
2019-03-12T15:56:44.681Z,0.77
2019-03-12T16:01:50.392Z,0.67
2019-03-12T16:07:01.146Z,0.67
2019-03-12T16:12:03.251Z,0.87
2019-03-12T16:17:08.858Z,0.70
2019-03-12T16:22:14.655Z,1.03
2019-03-12T16:27:20.109Z,1.10
2019-03-12T16:32:25.790Z,0.90
2019-03-12T16:37:31.629Z,0.70
2019-03-12T16:42:37.512Z,1.00
2019-03-12T16:47:43.119Z,0.70
2019-03-12T16:52:48.905Z,0.73
2019-03-12T16:57:54.605Z,0.93
2019-03-12T17:03:00.093Z,0.87
2019-03-12T17:08:05.992Z,0.90
2019-03-12T17:13:11.804Z,2.53
2019-03-12T17:18:17.574Z,1.40
2019-03-12T17:23:23.014Z,1.43
2019-03-12T17:28:28.657Z,2.43
2019-03-12T17:33:34.154Z,1.73
2019-03-12T17:38:46.589Z,1.43
2019-03-12T17:43:46.920Z,1.60
2019-03-12T17:48:52.477Z,2.00
2019-03-12T17:53:58.248Z,1.37
2019-03-12T17:59:03.633Z,1.17
2019-03-12T18:04:09.400Z,0.90
2019-03-12T18:09:15.940Z,1.23
2019-03-12T18:14:21.500Z,1.30
2019-03-12T18:19:27.192Z,1.50
2019-03-12T18:24:32.535Z,1.87
2019-03-12T18:29:38.143Z,1.60
2019-03-12T18:34:43.824Z,1.73
2019-03-12T18:39:49.323Z,1.70
2019-03-12T18:44:54.944Z,1.40
2019-03-12T18:50:00.433Z,2.03
2019-03-12T18:55:06.552Z,2.83
2019-03-12T19:00:12.913Z,1.93
2019-03-12T19:05:18.498Z,1.83
2019-03-12T19:10:24.040Z,1.57
2019-03-12T19:15:29.726Z,1.60
2019-03-12T19:20:44.551Z,1.60
2019-03-12T19:25:50.056Z,2.80
2019-03-12T19:31:05.411Z,1.33
2019-03-12T19:36:10.911Z,1.40
2019-03-12T19:41:16.253Z,1.23
2019-03-12T19:46:21.970Z,1.27
2019-03-12T19:51:27.589Z,1.50
2019-03-12T19:56:32.889Z,1.90
2019-03-12T20:01:39.254Z,1.77
2019-03-12T20:07:05.027Z,1.30
2019-03-12T20:12:52.614Z,1.40
2019-03-12T20:18:42.145Z,1.67
2019-03-12T20:24:28.371Z,1.67
2019-03-12T20:30:10.387Z,2.03
2019-03-12T20:35:49.320Z,2.20
2019-03-12T20:41:49.282Z,1.70
2019-03-12T20:47:30.455Z,2.43
2019-03-12T20:53:07.600Z,2.50
2019-03-12T20:59:12.245Z,2.70
2019-03-12T21:05:09.682Z,1.93
2019-03-12T21:10:54.643Z,2.23
2019-03-12T21:16:37.024Z,2.40
2019-03-12T21:22:10.399Z,2.60
2019-03-12T21:27:46.554Z,2.83
2019-03-12T21:32:52.208Z,2.67
2019-03-12T21:37:57.535Z,3.10
2019-03-12T21:43:03.210Z,2.37
2019-03-12T21:48:08.664Z,2.90
2019-03-12T21:53:14.560Z,2.83
2019-03-12T21:58:20.091Z,3.23
2019-03-12T22:03:25.668Z,2.43
2019-03-12T22:08:31.248Z,3.23
2019-03-12T22:13:36.951Z,3.63
2019-03-12T22:18:42.487Z,2.77
2019-03-12T22:23:49.466Z,3.03
2019-03-12T22:28:55.270Z,3.43
2019-03-12T22:34:00.787Z,2.50
2019-03-12T22:39:07.194Z,3.20
2019-03-12T22:44:12.777Z,3.73
2019-03-12T22:49:18.430Z,3.07
2019-03-12T22:54:23.898Z,3.73
2019-03-12T22:59:29.250Z,4.33
2019-03-12T23:04:34.929Z,3.17
2019-03-12T23:09:40.459Z,4.27
2019-03-12T23:14:45.824Z,3.57
2019-03-12T23:19:51.307Z,3.37
2019-03-12T23:24:56.740Z,3.23
2019-03-12T23:30:02.198Z,3.93
2019-03-12T23:35:08.292Z,2.77
2019-03-12T23:40:14.949Z,3.70
2019-03-12T23:45:20.573Z,3.07
2019-03-12T23:50:27.891Z,3.93
2019-03-12T23:55:33.601Z,2.67
